Time;durP1;ratioP1;P1;durP2;ratioP2;P2;SDS_P1;SDS_P2;PMS_P1;PMS_P2;Temp;Humidity;BMP_temperature;BMP_pressure;BME280_temperature;BME280_humidity;BME280_pressure;Samples;Min_cycle;Max_cycle;Signal;HPM_P1;HPM_P2
2022/10/01 00:00:20;;;;;;;8.00;6.45;;;;;;;24.47;64.22;101711.58;1654642;85;21076;-52
2022/10/01 00:02:47;;;;;;;7.97;6.40;;;;;;;24.49;64.15;101707.01;1696012;83;21532;-52
2022/10/01 00:05:14;;;;;;;7.75;6.67;;;;;;;24.68;63.49;101707.53;1697921;82;21057;-52
2022/10/01 00:07:44;;;;;;;9.28;6.47;;;;;;;24.73;63.25;101704.11;1728872;81;21021;-52
2022/10/01 00:10:12;;;;;;;9.15;6.58;;;;;;;24.73;63.19;101701.45;1697934;83;21059;-52
2022/10/01 00:12:45;;;;;;;9.60;6.62;;;;;;;24.72;63.11;101698.39;1688384;83;21050;-53
2022/10/01 00:15:14;;;;;;;8.10;6.85;;;;;;;24.72;63.05;101703.72;1690634;82;21094;-52
2022/10/01 00:17:41;;;;;;;7.40;6.55;;;;;;;24.71;63.02;101699.36;1697642;83;21128;-53
2022/10/01 00:20:08;;;;;;;8.18;6.58;;;;;;;24.70;63.01;101707.81;1660412;84;21049;-51
2022/10/01 00:22:35;;;;;;;6.72;6.10;;;;;;;24.71;62.99;101712.67;1685783;84;21071;-52
2022/10/01 00:25:04;;;;;;;9.98;7.17;;;;;;;24.70;62.94;101716.27;1694082;83;22142;-52
2022/10/01 00:27:31;;;;;;;9.55;6.70;;;;;;;24.70;62.93;101714.94;1661765;84;21056;-52
2022/10/01 00:29:57;;;;;;;7.75;6.90;;;;;;;24.69;62.96;101711.92;1670385;85;21073;-52
2022/10/01 00:32:24;;;;;;;9.45;7.10;;;;;;;24.69;63.01;101711.92;1655457;85;21070;-52
2022/10/01 00:34:51;;;;;;;7.37;6.70;;;;;;;24.68;62.98;101714.19;1674368;85;21072;-52
2022/10/01 00:37:18;;;;;;;7.17;6.40;;;;;;;24.68;62.94;101712.85;1697928;83;21038;-52
2022/10/01 00:39:45;;;;;;;7.65;6.83;;;;;;;24.67;62.94;101719.11;1670923;85;21069;-52
2022/10/01 00:42:23;;;;;;;7.12;6.53;;;;;;;24.67;62.94;101715.13;1672444;84;22193;-52
2022/10/01 00:44:52;;;;;;;10.60;6.67;;;;;;;24.67;62.90;101713.80;1673158;84;21044;-52
2022/10/01 00:47:30;;;;;;;7.58;6.87;;;;;;;24.66;63.02;101717.42;1650959;85;21139;-52
2022/10/01 00:50:09;;;;;;;7.78;6.60;;;;;;;24.43;63.67;101716.72;1601658;88;21081;-52
2022/10/01 00:52:38;;;;;;;8.08;7.22;;;;;;;24.60;63.22;101720.48;1538052;91;21070;-52
2022/10/01 00:55:19;;;;;;;8.50;7.12;;;;;;;24.65;63.12;101731.67;1537187;93;21768;-53
2022/10/01 00:57:46;;;;;;;8.40;7.40;;;;;;;24.64;63.18;101731.31;1516432;92;21107;-52
2022/10/01 01:00:13;;;;;;;8.25;6.58;;;;;;;24.64;63.13;101729.98;1513853;93;21160;-52
2022/10/01 01:02:41;;;;;;;8.38;7.45;;;;;;;24.63;63.12;101736.23;1552859;91;21689;-52
2022/10/01 01:05:12;;;;;;;7.67;6.83;;;;;;;24.63;63.12;101739.76;1557521;91;21135;-53
2022/10/01 01:07:38;;;;;;;8.95;7.45;;;;;;;24.62;63.05;101738.54;1581310;90;21062;-52
2022/10/01 01:10:06;;;;;;;8.38;7.58;;;;;;;24.62;63.01;101731.89;1586840;89;21583;-52
2022/10/01 01:12:38;;;;;;;7.35;6.65;;;;;;;24.62;62.98;101729.22;1586849;90;21056;-52
2022/10/01 01:15:29;;;;;;;8.35;7.55;;;;;;;24.62;62.92;101729.22;1594276;89;21094;-52
2022/10/01 01:18:26;;;;;;;7.95;7.00;;;;;;;24.61;62.86;101726.17;1596238;89;21593;-52
2022/10/01 01:21:20;;;;;;;7.50;6.80;;;;;;;24.60;62.80;101725.34;1593667;89;21087;-52
2022/10/01 01:24:04;;;;;;;7.97;7.28;;;;;;;24.59;62.82;101729.41;1548631;89;21079;-53
2022/10/01 01:26:52;;;;;;;8.23;7.42;;;;;;;24.58;62.84;101734.37;1587826;89;21170;-52
2022/10/01 01:29:25;;;;;;;7.83;7.10;;;;;;;24.57;62.83;101729.52;1592681;89;21650;-52
2022/10/01 01:31:51;;;;;;;8.75;7.55;;;;;;;24.56;62.75;101737.61;1523045;93;21165;-52
2022/10/01 01:34:22;;;;;;;9.95;8.63;;;;;;;24.56;62.70;101735.80;1530975;92;21057;-52
2022/10/01 01:36:57;;;;;;;10.95;9.85;;;;;;;24.55;62.64;101734.55;1539211;92;21042;-52
2022/10/01 01:39:25;;;;;;;11.48;9.45;;;;;;;24.54;62.51;101741.70;1530815;93;21234;-52
2022/10/01 01:41:55;;;;;;;11.28;10.30;;;;;;;24.52;62.42;101741.42;1536345;92;21172;-52
2022/10/01 01:44:25;;;;;;;11.63;10.53;;;;;;;24.51;62.30;101748.53;1535280;92;21119;-52
2022/10/01 01:46:53;;;;;;;11.45;10.45;;;;;;;24.49;62.11;101745.13;1572192;89;21105;-52
2022/10/01 01:49:20;;;;;;;13.38;12.03;;;;;;;24.49;62.04;101750.91;1588703;88;21078;-52
2022/10/01 01:51:55;;;;;;;14.13;12.40;;;;;;;24.48;61.88;101750.55;1627208;86;21131;-52
2022/10/01 01:54:22;;;;;;;13.30;11.97;;;;;;;24.47;61.71;101751.48;1632239;86;21057;-52
2022/10/01 01:56:49;;;;;;;14.15;12.85;;;;;;;24.44;61.54;101751.20;1651455;85;21109;-53
2022/10/01 01:59:17;;;;;;;14.58;13.28;;;;;;;24.42;61.43;101746.45;1650475;85;21057;-52
2022/10/01 02:01:45;;;;;;;14.95;13.65;;;;;;;24.41;61.26;101749.22;1666530;85;21058;-52
2022/10/01 02:04:37;;;;;;;14.58;13.08;;;;;;;24.38;61.17;101752.92;1676561;85;21070;-52
2022/10/01 02:07:21;;;;;;;14.60;13.28;;;;;;;24.38;60.95;101754.75;1641541;86;21072;-52
2022/10/01 02:10:00;;;;;;;14.85;13.45;;;;;;;24.35;60.86;101747.81;1654741;85;21061;-52
2022/10/01 02:12:53;;;;;;;15.83;14.25;;;;;;;24.33;60.83;101758.16;1639016;86;21121;-52
2022/10/01 02:15:27;;;;;;;14.68;13.25;;;;;;;24.30;60.72;101763.69;1683390;85;21044;-53
2022/10/01 02:18:29;;;;;;;14.78;13.48;;;;;;;24.28;60.66;101756.28;1681629;85;21046;-52
2022/10/01 02:21:29;;;;;;;15.03;13.60;;;;;;;24.25;60.64;101757.33;1682289;84;21124;-52
2022/10/01 02:24:31;;;;;;;17.60;15.72;;;;;;;24.23;60.59;101756.56;1652146;85;21560;-53
2022/10/01 02:27:00;;;;;;;17.50;15.90;;;;;;;24.20;60.63;101758.08;1563629;91;21082;-54
2022/10/01 02:29:26;;;;;;;25.43;23.12;;;;;;;24.18;60.73;101762.17;1584430;89;21112;-53
2022/10/01 02:31:54;;;;;;;30.35;27.42;;;;;;;24.17;60.68;101768.42;1590462;89;21076;-54
2022/10/01 02:34:23;;;;;;;34.20;30.70;;;;;;;24.16;60.77;101761.41;1586229;89;21144;-53
2022/10/01 02:36:49;;;;;;;44.18;39.85;;;;;;;24.14;60.80;101757.98;1587936;89;21124;-53
2022/10/01 02:39:16;;;;;;;53.38;47.98;;;;;;;24.14;60.71;101751.81;1594291;88;21501;-53
2022/10/01 02:41:43;;;;;;;55.83;50.33;;;;;;;24.12;60.63;101751.91;1585019;89;21082;-53
2022/10/01 02:44:14;;;;;;;52.03;46.92;;;;;;;24.13;60.60;101749.62;1582578;89;21180;-53
2022/10/01 02:46:45;;;;;;;;;;;;;;;24.12;60.56;101754.57;1548083;91;21154;-53
2022/10/01 02:49:12;;;;;;;53.42;48.02;;;;;;;24.11;60.55;101752.02;1533071;92;20113;-54
2022/10/01 02:51:56;;;;;;;48.90;43.83;;;;;;;24.09;60.65;101754.75;1515187;93;21133;-55
2022/10/01 02:54:34;;;;;;;44.48;40.38;;;;;;;24.08;60.77;101750.40;1483030;95;21786;-53
2022/10/01 02:57:22;;;;;;;45.25;40.58;;;;;;;24.08;60.86;101750.40;1514565;90;21660;-53
2022/10/01 02:59:50;;;;;;;42.93;38.60;;;;;;;24.08;60.89;101749.53;1565723;89;21137;-53
2022/10/01 03:02:18;;;;;;;43.38;39.20;;;;;;;24.07;60.95;101748.67;1554389;90;21067;-53
2022/10/01 03:04:46;;;;;;;41.30;37.13;;;;;;;24.06;60.90;101752.30;1560567;90;21052;-53
2022/10/01 03:07:15;;;;;;;41.68;37.67;;;;;;;24.05;60.92;101745.25;1560124;89;21110;-55
2022/10/01 03:09:42;;;;;;;42.78;38.67;;;;;;;24.06;60.79;101750.97;1561464;90;21104;-53
2022/10/01 03:12:09;;;;;;;45.75;41.25;;;;;;;24.05;60.62;101754.56;1543193;91;21108;-54
2022/10/01 03:14:38;;;;;;;46.25;41.45;;;;;;;24.03;60.61;101747.16;1559255;90;21071;-53
2022/10/01 03:17:08;;;;;;;48.38;43.25;;;;;;;24.02;60.44;101745.43;1565442;88;21697;-53
2022/10/01 03:19:35;;;;;;;49.83;44.75;;;;;;;24.00;60.38;101758.43;1592684;88;21082;-53
2022/10/01 03:22:01;;;;;;;51.55;46.15;;;;;;;23.97;60.24;101768.77;1583836;88;21088;-53
2022/10/01 03:24:28;;;;;;;49.10;44.38;;;;;;;23.95;60.07;101765.35;1596172;89;21658;-54
2022/10/01 03:26:56;;;;;;;53.25;47.75;;;;;;;23.93;59.88;101769.91;1584536;89;21125;-53
2022/10/01 03:29:24;;;;;;;51.73;46.63;;;;;;;23.91;59.90;101762.50;1590071;89;21035;-53
2022/10/01 03:31:51;;;;;;;51.45;46.35;;;;;;;23.67;60.25;101762.67;1616551;87;21071;-53
2022/10/01 03:34:18;;;;;;;54.18;48.90;;;;;;;23.62;60.09;101762.08;1623811;87;21093;-53
2022/10/01 03:36:45;;;;;;;52.08;46.88;;;;;;;23.59;60.19;101772.91;1617646;87;21655;-54
2022/10/01 03:39:12;;;;;;;51.68;46.48;;;;;;;23.56;60.25;101759.80;1619655;87;21057;-53
2022/10/01 03:41:39;;;;;;;51.85;46.73;;;;;;;23.54;59.89;101767.00;1623679;86;21077;-54
2022/10/01 03:44:06;;;;;;;51.83;46.77;;;;;;;23.52;59.78;101767.56;1665137;84;21567;-53
2022/10/01 03:46:33;;;;;;;52.95;47.80;;;;;;;23.49;59.66;101770.42;1679276;84;21090;-53
2022/10/01 03:49:00;;;;;;;55.58;50.23;;;;;;;23.64;59.09;101785.43;1686412;84;21133;-54
2022/10/01 03:51:29;;;;;;;52.60;47.45;;;;;;;23.71;58.90;101779.28;1694946;84;22628;-53
2022/10/01 03:53:56;;;;;;;51.20;46.37;;;;;;;23.71;58.70;101776.63;1658411;85;21110;-54
2022/10/01 03:56:23;;;;;;;46.45;42.05;;;;;;;23.70;58.55;101778.91;1609460;88;21108;-53
2022/10/01 03:58:50;;;;;;;45.48;40.95;;;;;;;23.69;58.44;101775.86;1605626;88;21121;-53
2022/10/01 04:01:16;;;;;;;46.50;41.85;;;;;;;23.68;58.41;101776.82;1642019;87;21563;-54
2022/10/01 04:03:44;;;;;;;47.67;43.08;;;;;;;23.67;58.23;101775.09;1652011;85;21036;-54
2022/10/01 04:06:12;;;;;;;50.35;45.43;;;;;;;23.65;58.12;101772.54;1647587;85;21595;-53
2022/10/01 04:08:38;;;;;;;49.77;44.70;;;;;;;23.65;57.99;101772.54;1646245;85;21096;-53
2022/10/01 04:11:07;;;;;;;51.28;46.08;;;;;;;23.64;57.76;101780.11;1651068;86;21147;-53
2022/10/01 04:13:34;;;;;;;53.80;48.45;;;;;;;23.64;57.68;101789.41;1655096;84;21147;-53
2022/10/01 04:16:03;;;;;;;54.50;49.20;;;;;;;23.61;57.65;101782.97;1657674;85;21560;-53
2022/10/01 04:18:30;;;;;;;52.60;47.58;;;;;;;23.61;57.61;101778.98;1648417;86;21597;-54
2022/10/01 04:20:57;;;;;;;53.25;47.90;;;;;;;23.60;57.54;101785.23;1639863;86;21073;-53
2022/10/01 04:23:24;;;;;;;52.50;47.40;;;;;;;23.58;57.48;101781.81;1660615;85;21076;-53
2022/10/01 04:25:50;;;;;;;54.85;49.60;;;;;;;23.57;57.46;101783.23;1647933;85;21101;-54
2022/10/01 04:28:17;;;;;;;52.70;47.67;;;;;;;23.55;57.48;101793.97;1624336;86;21063;-54
2022/10/01 04:30:44;;;;;;;57.20;49.53;;;;;;;23.54;57.50;101798.88;1705842;82;21068;-53
2022/10/01 04:33:14;;;;;;;54.60;49.42;;;;;;;23.54;57.55;101796.69;1688307;83;21058;-53
2022/10/01 04:35:42;;;;;;;54.75;49.27;;;;;;;23.52;57.48;101799.45;1681308;83;21104;-53
2022/10/01 04:38:14;;;;;;;54.35;48.90;;;;;;;23.51;57.45;101804.39;1690754;83;21078;-53
2022/10/01 04:40:41;;;;;;;56.92;51.35;;;;;;;23.50;57.44;101802.66;1700748;82;21006;-53
2022/10/01 04:43:08;;;;;;;54.75;49.40;;;;;;;23.50;57.48;101807.11;1704692;82;21050;-54
2022/10/01 04:45:36;;;;;;;53.80;48.45;;;;;;;23.49;57.52;101808.94;1659384;85;21497;-53
2022/10/01 04:48:04;;;;;;;54.70;49.48;;;;;;;23.47;57.53;101805.52;1695719;83;21067;-53
2022/10/01 04:50:30;;;;;;;55.52;50.17;;;;;;;23.49;57.65;101802.30;1714294;81;21000;-53
2022/10/01 04:52:57;;;;;;;53.42;48.42;;;;;;;23.49;57.59;101809.41;1733761;80;21531;-53
2022/10/01 04:55:24;;;;;;;56.08;50.67;;;;;;;23.48;57.55;101809.87;1725624;80;21073;-53
2022/10/01 04:57:51;;;;;;;55.75;50.38;;;;;;;23.49;57.62;101814.72;1735393;80;21072;-53
2022/10/01 05:00:21;;;;;;;57.38;52.00;;;;;;;23.49;57.56;101816.91;1705255;83;21053;-53
2022/10/01 05:02:49;;;;;;;56.60;51.30;;;;;;;23.49;57.54;101816.91;1724784;81;21040;-53
2022/10/01 05:05:18;;;;;;;54.20;49.00;;;;;;;23.48;57.61;101823.16;1722017;81;21553;-53
2022/10/01 05:07:44;;;;;;;56.08;50.38;;;;;;;23.49;57.49;101829.33;1677342;84;21010;-54
2022/10/01 05:10:15;;;;;;;55.03;49.70;;;;;;;23.49;57.45;101835.51;1676392;84;21126;-53
2022/10/01 05:12:45;;;;;;;54.25;49.08;;;;;;;23.49;57.36;101835.51;1693113;81;21030;-53
2022/10/01 05:15:12;;;;;;;52.88;47.78;;;;;;;23.49;57.25;101828.00;1686177;82;21067;-53
2022/10/01 05:17:39;;;;;;;53.10;48.13;;;;;;;23.48;57.13;101829.80;1700335;83;21387;-53
2022/10/01 05:20:08;;;;;;;50.85;45.80;;;;;;;23.47;57.14;101820.13;1690492;83;21041;-53
2022/10/01 05:22:35;;;;;;;52.48;47.27;;;;;;;23.47;57.10;101824.11;1718507;82;21589;-53
2022/10/01 05:25:02;;;;;;;48.78;44.10;;;;;;;23.48;57.11;101827.60;1730977;82;21078;-53
2022/10/01 05:27:36;;;;;;;46.92;42.73;;;;;;;23.48;57.02;101831.13;1684823;83;21017;-53
2022/10/01 05:30:00;;;;;;;;;;;;;;;23.49;56.88;101824.88;1736330;81;21558;-53
2022/10/01 05:32:28;;;;;;;46.45;42.00;;;;;;;23.50;56.84;101823.05;1730674;82;20165;-53
2022/10/01 05:34:55;;;;;;;43.40;39.38;;;;;;;23.50;56.83;101831.89;1715269;82;21028;-53
2022/10/01 05:37:21;;;;;;;42.93;38.88;;;;;;;23.52;56.75;101831.33;1719879;82;21027;-53
2022/10/01 05:39:48;;;;;;;42.03;38.23;;;;;;;23.53;56.75;101835.71;1737797;81;21122;-53
2022/10/01 05:42:14;;;;;;;40.52;36.75;;;;;;;23.56;56.70;101842.16;1727379;81;21052;-53
2022/10/01 05:44:45;;;;;;;40.05;35.98;;;;;;;23.58;56.55;101839.40;1730803;81;21051;-55
2022/10/01 05:47:13;;;;;;;41.77;37.73;;;;;;;23.60;56.38;101838.38;1723244;81;21608;-55
2022/10/01 05:49:42;;;;;;;39.20;35.35;;;;;;;23.62;56.37;101836.48;1731925;81;21097;-53
2022/10/01 05:52:14;;;;;;;41.28;37.53;;;;;;;23.66;56.33;101840.66;1729020;82;21042;-52
2022/10/01 05:54:40;;;;;;;37.50;34.08;;;;;;;23.72;56.27;101843.45;1738808;80;21140;-52
2022/10/01 05:57:08;;;;;;;36.98;33.28;;;;;;;23.77;56.28;101850.66;1731827;80;21077;-53
2022/10/01 05:59:35;;;;;;;35.63;32.03;;;;;;;23.80;56.15;101843.36;1716733;82;21042;-53
2022/10/01 06:02:03;;;;;;;35.73;32.53;;;;;;;23.85;55.96;101843.09;1730508;81;21066;-53
2022/10/01 06:04:32;;;;;;;34.70;31.50;;;;;;;23.90;55.71;101846.34;1719080;81;21009;-53
2022/10/01 06:06:59;;;;;;;33.55;30.30;;;;;;;23.96;55.65;101845.97;1737836;81;21020;-53
2022/10/01 06:09:26;;;;;;;34.78;31.60;;;;;;;24.00;55.08;101852.34;1738574;81;21011;-52
2022/10/01 06:11:54;;;;;;;34.45;31.07;;;;;;;24.03;55.21;101853.51;1743265;80;21049;-53
2022/10/01 06:14:21;;;;;;;34.33;31.10;;;;;;;24.07;55.19;101864.34;1736768;81;21098;-52
2022/10/01 06:16:53;;;;;;;31.93;28.87;;;;;;;23.98;55.38;101871.52;1745070;81;21060;-52
2022/10/01 06:19:20;;;;;;;33.67;30.32;;;;;;;24.12;54.65;101877.37;1741365;81;21054;-53
2022/10/01 06:21:47;;;;;;;33.80;30.23;;;;;;;24.26;53.84;101873.39;1739708;81;21077;-52
2022/10/01 06:24:14;;;;;;;33.20;29.82;;;;;;;24.31;53.52;101878.44;1746912;81;21049;-53
2022/10/01 06:26:42;;;;;;;33.73;30.60;;;;;;;24.36;53.52;101873.70;1743234;81;21023;-52
2022/10/01 06:29:09;;;;;;;33.63;30.05;;;;;;;24.43;53.54;101873.69;1746833;81;21484;-53
2022/10/01 06:31:36;;;;;;;34.50;30.97;;;;;;;24.49;53.73;101867.52;1754001;80;21011;-52
2022/10/01 06:34:03;;;;;;;35.15;31.85;;;;;;;24.55;53.46;101866.27;1756397;80;21143;-53
2022/10/01 06:36:30;;;;;;;35.33;31.80;;;;;;;24.64;53.42;101865.70;1756651;80;21021;-53
2022/10/01 06:38:57;;;;;;;36.55;32.88;;;;;;;24.71;53.29;101867.05;1710852;80;21553;-53
2022/10/01 06:41:25;;;;;;;36.55;33.08;;;;;;;24.55;53.41;101870.27;1741219;80;21084;-53
2022/10/01 06:43:52;;;;;;;35.28;31.93;;;;;;;24.78;53.05;101860.40;1755816;80;21026;-53
2022/10/01 06:46:18;;;;;;;35.60;32.28;;;;;;;24.96;52.48;101859.22;1753456;80;21088;-53
2022/10/01 06:48:45;;;;;;;34.85;31.37;;;;;;;25.06;52.16;101863.00;1744919;80;21081;-53
2022/10/01 06:51:13;;;;;;;34.08;30.95;;;;;;;25.14;51.62;101863.39;1751952;80;21071;-52
2022/10/01 06:53:40;;;;;;;35.03;31.82;;;;;;;25.19;51.17;101858.59;1741431;80;21032;-53
2022/10/01 06:56:07;;;;;;;35.03;31.33;;;;;;;25.21;50.81;101855.35;1744369;80;21528;-52
2022/10/01 06:58:34;;;;;;;34.18;30.68;;;;;;;25.23;50.63;101862.77;1756698;80;21053;-52
2022/10/01 07:01:02;;;;;;;33.67;30.27;;;;;;;25.26;50.34;101862.58;1767017;80;21118;-52
2022/10/01 07:03:29;;;;;;;32.23;29.10;;;;;;;25.29;50.02;101871.69;1742143;81;21524;-52
2022/10/01 07:06:02;;;;;;;31.55;28.45;;;;;;;25.32;49.94;101873.30;1734966;81;21032;-53
2022/10/01 07:08:28;;;;;;;30.90;27.62;;;;;;;25.35;49.98;101876.61;1723304;81;21027;-53
2022/10/01 07:11:01;;;;;;;28.73;25.82;;;;;;;25.41;50.05;101878.08;1744788;81;21557;-52
2022/10/01 07:13:28;;;;;;;28.60;25.85;;;;;;;25.47;50.06;101879.83;1741596;81;21026;-53
2022/10/01 07:15:55;;;;;;;27.25;24.65;;;;;;;25.51;49.91;101878.67;1737201;81;21179;-53
2022/10/01 07:18:23;;;;;;;25.95;23.55;;;;;;;25.55;49.67;101873.55;1743320;81;21143;-53
2022/10/01 07:20:49;;;;;;;23.95;21.52;;;;;;;25.60;49.53;101875.88;1749261;81;21496;-54
2022/10/01 07:23:17;;;;;;;21.97;19.87;;;;;;;25.63;49.31;101872.55;1736246;81;21129;-53
2022/10/01 07:25:46;;;;;;;20.45;18.50;;;;;;;25.69;49.04;101873.95;1749447;81;21096;-53
2022/10/01 07:28:18;;;;;;;23.55;21.10;;;;;;;25.73;48.87;101878.97;1738379;81;21054;-53
2022/10/01 07:31:00;;;;;;;26.33;23.52;;;;;;;25.79;49.04;101875.03;1737987;81;21067;-51
2022/10/01 07:33:27;;;;;;;27.87;25.30;;;;;;;25.86;49.34;101875.48;1737454;81;21086;-52
2022/10/01 07:35:57;;;;;;;31.10;28.15;;;;;;;25.91;50.05;101868.86;1731796;81;21070;-52
2022/10/01 07:38:24;;;;;;;29.15;26.25;;;;;;;25.98;50.48;101877.30;1741430;81;21033;-52
2022/10/01 07:40:52;;;;;;;29.90;27.17;;;;;;;26.02;50.73;101876.13;1747016;80;21041;-52
2022/10/01 07:43:18;;;;;;;29.82;26.70;;;;;;;26.07;50.74;101876.69;1733334;81;21069;-52
2022/10/01 07:45:53;;;;;;;29.20;26.30;;;;;;;26.11;50.45;101877.72;1728573;81;21093;-52
2022/10/01 07:48:19;;;;;;;30.62;27.52;;;;;;;26.16;50.27;101876.06;1745532;80;21588;-53
2022/10/01 07:50:46;;;;;;;29.60;26.70;;;;;;;26.21;49.81;101869.95;1745166;80;21080;-52
2022/10/01 07:53:13;;;;;;;29.95;26.82;;;;;;;26.26;49.24;101871.80;1746020;81;21044;-52
2022/10/01 07:55:39;;;;;;;30.70;27.77;;;;;;;26.32;49.32;101867.37;1740031;81;21143;-52
2022/10/01 07:58:06;;;;;;;33.10;29.82;;;;;;;26.37;49.93;101866.58;1738722;81;21083;-53
2022/10/01 08:00:33;;;;;;;31.33;28.35;;;;;;;26.44;50.32;101862.53;1739013;81;21092;-53
2022/10/01 08:03:00;;;;;;;29.15;26.37;;;;;;;26.47;50.77;101856.96;1736843;81;21067;-53
2022/10/01 08:05:29;;;;;;;29.45;26.37;;;;;;;26.50;50.98;101854.92;1760038;80;21040;-52
2022/10/01 08:08:06;;;;;;;32.13;29.12;;;;;;;26.52;51.04;101860.17;1740675;80;21497;-52
2022/10/01 08:10:35;;;;;;;31.60;28.60;;;;;;;26.54;50.89;101864.92;1609324;86;21118;-53
2022/10/01 08:13:07;;;;;;;32.40;29.30;;;;;;;26.58;50.93;101871.75;1612296;87;21063;-53
2022/10/01 08:15:34;;;;;;;30.32;27.40;;;;;;;26.60;51.02;101868.48;1631878;86;21007;-54
2022/10/01 08:18:03;;;;;;;29.40;26.90;;;;;;;26.64;51.09;101869.98;1626686;85;21137;-51
2022/10/01 08:20:30;;;;;;;29.82;27.02;;;;;;;26.66;50.99;101871.19;1623813;86;21642;-54
2022/10/01 08:23:03;;;;;;;30.60;27.80;;;;;;;26.67;50.92;101868.41;1626549;86;21101;-54
2022/10/01 08:25:30;;;;;;;30.15;27.27;;;;;;;26.69;51.06;101873.16;1614826;87;21614;-53
2022/10/01 08:27:57;;;;;;;28.02;25.57;;;;;;;26.72;51.09;101872.98;1631918;86;21122;-54
2022/10/01 08:30:24;;;;;;;27.70;25.10;;;;;;;26.76;51.16;101866.93;1615867;86;21117;-53
2022/10/01 08:32:55;;;;;;;26.75;24.07;;;;;;;26.77;51.22;101866.81;1622128;86;21074;-54
2022/10/01 08:35:23;;;;;;;26.10;23.52;;;;;;;26.80;51.06;101867.94;1626174;86;21082;-54
2022/10/01 08:37:49;;;;;;;24.57;22.17;;;;;;;26.84;50.95;101869.42;1624974;87;21638;-54
2022/10/01 08:40:16;;;;;;;29.70;23.02;;;;;;;26.87;50.43;101871.03;1627058;86;21090;-51
2022/10/01 08:42:51;;;;;;;24.45;22.02;;;;;;;26.90;50.07;101865.45;1615452;87;21535;-54
2022/10/01 08:45:41;;;;;;;25.05;22.60;;;;;;;26.95;50.03;101865.98;1619714;87;21562;-53
2022/10/01 08:48:41;;;;;;;24.77;22.32;;;;;;;26.97;50.26;101856.91;1629967;86;21085;-54
2022/10/01 08:51:16;;;;;;;24.95;22.60;;;;;;;27.01;50.23;101853.04;1639521;86;21118;-54
2022/10/01 08:53:50;;;;;;;25.43;22.77;;;;;;;27.04;49.86;101851.47;1626772;87;21164;-54
2022/10/01 08:56:24;;;;;;;25.48;23.10;;;;;;;27.06;49.96;101848.20;1634400;86;21617;-52
2022/10/01 08:59:00;;;;;;;25.68;22.98;;;;;;;27.08;50.39;101842.77;1619706;87;21082;-53
2022/10/01 09:01:28;;;;;;;23.83;21.17;;;;;;;27.08;49.92;101837.42;1586723;89;21091;-54
2022/10/01 09:03:55;;;;;;;25.32;22.93;;;;;;;27.09;50.39;101836.44;1550917;90;21199;-53
2022/10/01 09:06:26;;;;;;;23.98;21.60;;;;;;;27.09;50.33;101834.63;1591235;84;21048;-51
2022/10/01 09:09:16;;;;;;;23.38;20.95;;;;;;;27.15;50.67;101825.30;1574939;90;21104;-53
2022/10/01 09:11:58;;;;;;;24.40;21.93;;;;;;;27.15;50.67;101825.30;1569072;90;21132;-53
2022/10/01 09:14:59;;;;;;;21.90;19.52;;;;;;;27.19;49.97;101822.77;1581533;90;21588;-53
2022/10/01 09:17:53;;;;;;;;;;;;;;;27.23;50.12;101827.77;1575672;90;21724;-53
2022/10/01 09:20:26;;;;;;;21.27;19.12;;;;;;;27.29;50.13;101824.64;1514927;93;20130;-54
2022/10/01 09:23:16;;;;;;;21.50;19.50;;;;;;;27.37;49.88;101820.08;1517209;92;21561;-53
2022/10/01 09:25:44;;;;;;;23.20;20.80;;;;;;;27.42;49.92;101814.39;1541006;91;21144;-54
2022/10/01 09:28:29;;;;;;;22.30;19.95;;;;;;;27.48;49.68;101814.79;1523657;92;21054;-52
2022/10/01 09:31:20;;;;;;;23.35;21.17;;;;;;;27.52;49.80;101813.59;1506710;93;21164;-53
2022/10/01 09:34:03;;;;;;;21.65;19.55;;;;;;;27.57;49.91;101818.59;1473435;95;21081;-53
2022/10/01 09:36:45;;;;;;;22.70;20.50;;;;;;;27.58;49.65;101806.91;1454789;97;21096;-53
2022/10/01 09:39:25;;;;;;;22.00;19.87;;;;;;;27.56;49.48;101804.84;1457365;97;21233;-54
2022/10/01 09:41:52;;;;;;;22.55;20.48;;;;;;;27.56;49.48;101804.84;1458293;97;21093;-54
2022/10/01 09:44:28;;;;;;;20.02;18.25;;;;;;;27.58;49.58;101800.23;1460056;97;21116;-53
2022/10/01 09:46:55;;;;;;;20.27;18.40;;;;;;;27.58;49.58;101800.23;1533915;90;21079;-53
2022/10/01 09:49:30;;;;;;;20.12;18.23;;;;;;;27.59;49.04;101799.27;1550821;90;21617;-53
2022/10/01 09:52:01;;;;;;;18.62;16.93;;;;;;;27.61;48.60;101797.33;1638446;84;21057;-53
2022/10/01 09:54:52;;;;;;;17.57;16.10;;;;;;;27.62;48.85;101788.33;1675399;84;21124;-54
2022/10/01 09:57:26;;;;;;;18.12;16.27;;;;;;;27.66;48.90;101775.09;1637386;84;21105;-53
2022/10/01 10:00:12;;;;;;;16.97;15.48;;;;;;;27.68;48.84;101766.46;1657693;85;21172;-53
2022/10/01 10:02:44;;;;;;;17.17;15.78;;;;;;;27.72;48.72;101767.96;1676743;85;21076;-53
2022/10/01 10:05:26;;;;;;;17.10;15.43;;;;;;;27.75;48.63;101771.23;1660144;85;21598;-53
2022/10/01 10:08:00;;;;;;;17.10;15.58;;;;;;;27.78;48.78;101770.16;1667890;84;21113;-53
2022/10/01 10:10:38;;;;;;;15.80;14.28;;;;;;;27.84;48.99;101765.16;1607794;88;21061;-53
2022/10/01 10:13:22;;;;;;;15.48;13.85;;;;;;;27.84;48.99;101765.16;1618232;87;21085;-53
2022/10/01 10:15:57;;;;;;;14.58;13.38;;;;;;;27.92;48.60;101764.58;1605496;88;21617;-54
2022/10/01 10:18:34;;;;;;;15.30;13.75;;;;;;;27.96;48.31;101759.38;1591174;89;21119;-53
2022/10/01 10:21:15;;;;;;;14.70;13.40;;;;;;;28.00;48.06;101762.19;1589936;89;21112;-53
2022/10/01 10:23:57;;;;;;;15.63;14.23;;;;;;;28.03;47.76;101757.91;1587534;88;21084;-53
2022/10/01 10:26:37;;;;;;;14.63;13.35;;;;;;;28.03;47.52;101749.88;1567205;91;21510;-53
2022/10/01 10:29:06;;;;;;;16.23;14.83;;;;;;;28.03;47.52;101749.88;1565006;91;21140;-53
2022/10/01 10:31:42;;;;;;;15.90;14.45;;;;;;;27.99;47.55;101741.73;1566319;91;21198;-54
2022/10/01 10:34:30;;;;;;;15.95;14.55;;;;;;;27.91;47.94;101734.29;1566773;90;21136;-53
2022/10/01 10:36:59;;;;;;;15.03;13.60;;;;;;;27.91;47.94;101734.29;1554739;91;21062;-53
2022/10/01 10:39:28;;;;;;;14.83;13.48;;;;;;;27.89;48.54;101731.36;1533531;92;21083;-53
2022/10/01 10:41:55;;;;;;;14.55;13.25;;;;;;;27.87;48.58;101727.96;1539437;91;21140;-53
2022/10/01 10:44:24;;;;;;;14.83;13.25;;;;;;;27.86;48.63;101732.45;1549684;91;21110;-53
2022/10/01 10:46:52;;;;;;;14.60;13.25;;;;;;;27.88;48.86;101728.34;1549534;90;21155;-53
2022/10/01 10:49:29;;;;;;;15.32;13.83;;;;;;;27.92;48.90;101729.80;1546722;91;21531;-54
2022/10/01 10:51:59;;;;;;;14.13;12.70;;;;;;;27.96;48.88;101719.25;1578338;89;21077;-53
2022/10/01 10:54:38;;;;;;;14.55;13.18;;;;;;;28.01;49.04;101713.03;1572011;89;21118;-53
2022/10/01 10:57:26;;;;;;;15.00;13.60;;;;;;;28.08;49.18;101714.27;1579130;90;21107;-53
2022/10/01 10:59:59;;;;;;;15.38;13.98;;;;;;;28.22;49.27;101718.02;1575063;89;21579;-53
2022/10/01 11:02:31;;;;;;;15.72;14.15;;;;;;;28.22;49.27;101718.02;1562300;90;21899;-53
2022/10/01 11:05:03;;;;;;;15.15;13.58;;;;;;;28.27;49.49;101717.66;1560205;90;21521;-53
2022/10/01 11:07:30;;;;;;;16.65;12.47;;;;;;;28.28;49.58;101712.17;1557206;89;21033;-53
2022/10/01 11:10:30;;;;;;;14.20;12.82;;;;;;;28.30;49.45;101713.38;1560826;89;21164;-53
2022/10/01 11:13:05;;;;;;;14.80;12.00;;;;;;;28.30;49.81;101699.51;1554039;91;21127;-52
2022/10/01 11:16:04;;;;;;;13.03;11.85;;;;;;;28.30;49.63;101701.33;1573807;90;21114;-53
2022/10/01 11:19:06;;;;;;;12.18;10.88;;;;;;;28.28;49.55;101700.12;1594360;88;21656;-53
2022/10/01 11:22:06;;;;;;;10.20;9.25;;;;;;;28.24;49.53;101695.99;1557027;90;21149;-53
2022/10/01 11:24:57;;;;;;;8.88;8.08;;;;;;;28.21;49.55;101703.42;1564037;90;21097;-54
2022/10/01 11:27:58;;;;;;;8.23;7.43;;;;;;;28.15;49.80;101692.23;1567051;89;21060;-54
2022/10/01 11:30:48;;;;;;;8.38;7.05;;;;;;;28.12;49.92;101698.33;1580784;88;21647;-53
2022/10/01 11:33:45;;;;;;;8.95;7.35;;;;;;;28.06;50.31;101690.79;1579114;89;21099;-53